UAL429 KSAN-KLAX
Flight info
| Callsign | UAL429 |
|---|---|
| Flight time | 0h 27m |
| Altitude | 10000 |
| Route | CWARD2 SLI |
| Aircraft | B738/M-VGDW/C |
Departure
| Time | 2026-04-23 02:03 |
|---|---|
| Airport | San Diego International Airport (KSAN) |
Arrival
| Time | 2026-04-23 02:31 |
|---|---|
| Airport | Los Angeles International Airport (KLAX) |
| Time | Latitude | Longitude | Altitude | Speed | Heading |
|---|---|---|---|---|---|
| 2026-04-23 01:52 | 32.73349 | -117.20262 | 21 ft | 0 kts | 16° |
| 2026-04-23 01:56 | 32.73356 | -117.20261 | 21 ft | 4 kts | 356° |
| 2026-04-23 01:57 | 32.73414 | -117.20252 | 21 ft | 13 kts | 17° |
| 2026-04-23 01:57 | 32.73504 | -117.20177 | 21 ft | 20 kts | 86° |
| 2026-04-23 01:57 | 32.73492 | -117.19974 | 21 ft | 28 kts | 105° |
| 2026-04-23 01:57 | 32.73438 | -117.19712 | 22 ft | 37 kts | 104° |
| 2026-04-23 01:58 | 32.73353 | -117.19389 | 24 ft | 42 kts | 107° |
| 2026-04-23 01:58 | 32.73269 | -117.19033 | 23 ft | 48 kts | 106° |
| 2026-04-23 01:58 | 32.73174 | -117.18633 | 21 ft | 51 kts | 105° |
| 2026-04-23 01:58 | 32.73081 | -117.18255 | 21 ft | 42 kts | 105° |
| 2026-04-23 01:59 | 32.73011 | -117.17954 | 22 ft | 30 kts | 107° |
| 2026-04-23 01:59 | 32.72973 | -117.17802 | 25 ft | 11 kts | 106° |
| 2026-04-23 01:59 | 32.72960 | -117.17746 | 26 ft | 0 kts | 106° |
| 2026-04-23 02:00 | 32.72957 | -117.17734 | 26 ft | 3 kts | 105° |
| 2026-04-23 02:00 | 32.72954 | -117.17692 | 26 ft | 0 kts | 87° |
| 2026-04-23 02:00 | 32.72954 | -117.17691 | 26 ft | 0 kts | 87° |
| 2026-04-23 02:02 | 32.72954 | -117.17690 | 26 ft | 1 kts | 87° |
| 2026-04-23 02:02 | 32.72965 | -117.17659 | 27 ft | 11 kts | 52° |
| 2026-04-23 02:02 | 32.73033 | -117.17656 | 28 ft | 11 kts | 311° |
| 2026-04-23 02:03 | 32.73090 | -117.17870 | 25 ft | 63 kts | 287° |
| 2026-04-23 02:03 | 32.73301 | -117.18697 | 24 ft | 142 kts | 285° |
| 2026-04-23 02:03 | 32.73650 | -117.19913 | 551 ft | 162 kts | 293° |
| 2026-04-23 02:03 | 32.74147 | -117.21125 | 1367 ft | 174 kts | 301° |
| 2026-04-23 02:04 | 32.74826 | -117.22317 | 2105 ft | 181 kts | 308° |
| 2026-04-23 02:04 | 32.75716 | -117.23476 | 2566 ft | 199 kts | 317° |
| 2026-04-23 02:04 | 32.76630 | -117.24796 | 2934 ft | 219 kts | 299° |
| 2026-04-23 02:04 | 32.77292 | -117.26485 | 3446 ft | 232 kts | 296° |
| 2026-04-23 02:05 | 32.77996 | -117.28245 | 4005 ft | 243 kts | 297° |
| 2026-04-23 02:05 | 32.78958 | -117.29967 | 4401 ft | 261 kts | 312° |
| 2026-04-23 02:05 | 32.80140 | -117.31656 | 4916 ft | 263 kts | 308° |
| 2026-04-23 02:05 | 32.81164 | -117.33365 | 5233 ft | 245 kts | 304° |
| 2026-04-23 02:06 | 32.82062 | -117.35089 | 5375 ft | 253 kts | 302° |
| 2026-04-23 02:06 | 32.83045 | -117.36803 | 6272 ft | 252 kts | 306° |
| 2026-04-23 02:06 | 32.84075 | -117.38474 | 7113 ft | 253 kts | 307° |
| 2026-04-23 02:06 | 32.85139 | -117.40127 | 7935 ft | 255 kts | 307° |
| 2026-04-23 02:07 | 32.86265 | -117.41754 | 8419 ft | 259 kts | 309° |
| 2026-04-23 02:07 | 32.87468 | -117.43333 | 8825 ft | 255 kts | 312° |
| 2026-04-23 02:07 | 32.88743 | -117.44817 | 9242 ft | 258 kts | 315° |
| 2026-04-23 02:07 | 32.90089 | -117.46230 | 9669 ft | 261 kts | 317° |
| 2026-04-23 02:08 | 32.91384 | -117.47756 | 9942 ft | 264 kts | 311° |
| 2026-04-23 02:08 | 32.92627 | -117.49325 | 10014 ft | 258 kts | 309° |
| 2026-04-23 02:08 | 32.93804 | -117.50944 | 10137 ft | 258 kts | 309° |
| 2026-04-23 02:08 | 32.94965 | -117.52527 | 10238 ft | 253 kts | 309° |
| 2026-04-23 02:09 | 32.96179 | -117.54162 | 9809 ft | 277 kts | 310° |
| 2026-04-23 02:09 | 32.97445 | -117.55836 | 9776 ft | 262 kts | 310° |
| 2026-04-23 02:09 | 32.98690 | -117.57414 | 9947 ft | 265 kts | 312° |
| 2026-04-23 02:09 | 33.00020 | -117.59013 | 9934 ft | 277 kts | 313° |
| 2026-04-23 02:10 | 33.01396 | -117.60532 | 10067 ft | 261 kts | 316° |
| 2026-04-23 02:10 | 33.02753 | -117.61871 | 10072 ft | 251 kts | 319° |
| 2026-04-23 02:10 | 33.04149 | -117.63071 | 10060 ft | 242 kts | 323° |
| 2026-04-23 02:10 | 33.05293 | -117.64439 | 9908 ft | 232 kts | 297° |
| 2026-04-23 02:11 | 33.05884 | -117.66163 | 9890 ft | 222 kts | 288° |
| 2026-04-23 02:11 | 33.06422 | -117.67930 | 9408 ft | 235 kts | 291° |
| 2026-04-23 02:11 | 33.07074 | -117.69720 | 9205 ft | 234 kts | 295° |
| 2026-04-23 02:11 | 33.07825 | -117.71453 | 8978 ft | 234 kts | 299° |
| 2026-04-23 02:12 | 33.08680 | -117.73080 | 9055 ft | 230 kts | 303° |
| 2026-04-23 02:12 | 33.09656 | -117.74617 | 9079 ft | 239 kts | 308° |
| 2026-04-23 02:12 | 33.10805 | -117.76090 | 9252 ft | 247 kts | 314° |
| 2026-04-23 02:12 | 33.12112 | -117.77456 | 9416 ft | 255 kts | 320° |
| 2026-04-23 02:13 | 33.13666 | -117.78515 | 9682 ft | 262 kts | 335° |
| 2026-04-23 02:13 | 33.15482 | -117.79058 | 9891 ft | 271 kts | 346° |
| 2026-04-23 02:13 | 33.17373 | -117.79421 | 9979 ft | 281 kts | 346° |
| 2026-04-23 02:13 | 33.19324 | -117.79798 | 9969 ft | 285 kts | 346° |
| 2026-04-23 02:14 | 33.21301 | -117.80162 | 10020 ft | 288 kts | 347° |
| 2026-04-23 02:14 | 33.23256 | -117.80682 | 9948 ft | 291 kts | 335° |
| 2026-04-23 02:14 | 33.25230 | -117.81266 | 10040 ft | 293 kts | 346° |
| 2026-04-23 02:14 | 33.27275 | -117.81588 | 10173 ft | 292 kts | 349° |
| 2026-04-23 02:15 | 33.31335 | -117.81859 | 10263 ft | 299 kts | 351° |
| 2026-04-23 02:15 | 33.33480 | -117.82047 | 9975 ft | 311 kts | 351° |
| 2026-04-23 02:15 | 33.35623 | -117.82250 | 9972 ft | 313 kts | 351° |
| 2026-04-23 02:16 | 33.37794 | -117.82456 | 9941 ft | 312 kts | 350° |
| 2026-04-23 02:16 | 33.39932 | -117.82838 | 9948 ft | 308 kts | 345° |
| 2026-04-23 02:16 | 33.42037 | -117.83276 | 9935 ft | 307 kts | 346° |
| 2026-04-23 02:16 | 33.44107 | -117.83792 | 9943 ft | 302 kts | 341° |
| 2026-04-23 02:17 | 33.46197 | -117.84244 | 9937 ft | 304 kts | 350° |
| 2026-04-23 02:17 | 33.48278 | -117.84422 | 9933 ft | 294 kts | 350° |
| 2026-04-23 02:17 | 33.50252 | -117.84712 | 9938 ft | 275 kts | 347° |
| 2026-04-23 02:17 | 33.52095 | -117.85030 | 9946 ft | 264 kts | 347° |
| 2026-04-23 02:18 | 33.53933 | -117.85323 | 9949 ft | 266 kts | 347° |
| 2026-04-23 02:18 | 33.55784 | -117.85617 | 9949 ft | 268 kts | 347° |
| 2026-04-23 02:18 | 33.57608 | -117.85923 | 9944 ft | 267 kts | 347° |
| 2026-04-23 02:18 | 33.59459 | -117.86224 | 9944 ft | 267 kts | 347° |
| 2026-04-23 02:19 | 33.61290 | -117.86517 | 9945 ft | 266 kts | 347° |
| 2026-04-23 02:19 | 33.63138 | -117.86824 | 9939 ft | 265 kts | 347° |
| 2026-04-23 02:19 | 33.64974 | -117.87128 | 9789 ft | 268 kts | 347° |
| 2026-04-23 02:19 | 33.66814 | -117.87434 | 9471 ft | 266 kts | 347° |
| 2026-04-23 02:20 | 33.68649 | -117.87754 | 9168 ft | 269 kts | 347° |
| 2026-04-23 02:20 | 33.70518 | -117.88090 | 8862 ft | 272 kts | 347° |
| 2026-04-23 02:20 | 33.72395 | -117.88448 | 8547 ft | 274 kts | 347° |
| 2026-04-23 02:20 | 33.74271 | -117.88820 | 8217 ft | 270 kts | 347° |
| 2026-04-23 02:21 | 33.76105 | -117.89195 | 7889 ft | 266 kts | 347° |
| 2026-04-23 02:21 | 33.77919 | -117.89574 | 7587 ft | 260 kts | 347° |
| 2026-04-23 02:21 | 33.79669 | -117.89943 | 7290 ft | 248 kts | 347° |
| 2026-04-23 02:21 | 33.81335 | -117.90304 | 6958 ft | 241 kts | 347° |
| 2026-04-23 02:22 | 33.82966 | -117.90670 | 6621 ft | 237 kts | 347° |
| 2026-04-23 02:22 | 33.84592 | -117.91049 | 6293 ft | 236 kts | 347° |
| 2026-04-23 02:22 | 33.86192 | -117.91434 | 5976 ft | 235 kts | 347° |
| 2026-04-23 02:22 | 33.87788 | -117.91824 | 5657 ft | 234 kts | 347° |
| 2026-04-23 02:23 | 33.89394 | -117.92211 | 5333 ft | 234 kts | 347° |
| 2026-04-23 02:23 | 33.90959 | -117.92702 | 5001 ft | 233 kts | 336° |
| 2026-04-23 02:23 | 33.92277 | -117.93806 | 4670 ft | 232 kts | 310° |
| 2026-04-23 02:23 | 33.92977 | -117.95525 | 4362 ft | 231 kts | 286° |
| 2026-04-23 02:24 | 33.93437 | -117.97369 | 4050 ft | 230 kts | 291° |
| 2026-04-23 02:24 | 33.94002 | -117.99176 | 3728 ft | 230 kts | 291° |
| 2026-04-23 02:24 | 33.94558 | -118.00970 | 3557 ft | 223 kts | 291° |
| 2026-04-23 02:24 | 33.95078 | -118.02666 | 3541 ft | 210 kts | 291° |
| 2026-04-23 02:25 | 33.95536 | -118.04269 | 3540 ft | 198 kts | 284° |
| 2026-04-23 02:25 | 33.95805 | -118.05903 | 3541 ft | 194 kts | 283° |
| 2026-04-23 02:25 | 33.96124 | -118.07465 | 3545 ft | 191 kts | 287° |
| 2026-04-23 02:25 | 33.96407 | -118.09019 | 3538 ft | 189 kts | 272° |
| 2026-04-23 02:26 | 33.96361 | -118.10580 | 3543 ft | 189 kts | 268° |
| 2026-04-23 02:26 | 33.96314 | -118.12164 | 3541 ft | 190 kts | 268° |
| 2026-04-23 02:26 | 33.96192 | -118.13764 | 3541 ft | 191 kts | 265° |
| 2026-04-23 02:26 | 33.96044 | -118.15349 | 3537 ft | 192 kts | 265° |
| 2026-04-23 02:27 | 33.95885 | -118.16948 | 3529 ft | 193 kts | 265° |
| 2026-04-23 02:27 | 33.95722 | -118.18603 | 3314 ft | 205 kts | 264° |
| 2026-04-23 02:27 | 33.95549 | -118.20289 | 3070 ft | 200 kts | 265° |
| 2026-04-23 02:27 | 33.95390 | -118.21921 | 2769 ft | 193 kts | 264° |
| 2026-04-23 02:28 | 33.95229 | -118.23479 | 2517 ft | 186 kts | 264° |
| 2026-04-23 02:28 | 33.95077 | -118.25030 | 2269 ft | 184 kts | 263° |
| 2026-04-23 02:28 | 33.94920 | -118.26566 | 2026 ft | 184 kts | 263° |
| 2026-04-23 02:28 | 33.94775 | -118.28014 | 1792 ft | 165 kts | 263° |
| 2026-04-23 02:29 | 33.94642 | -118.29329 | 1553 ft | 149 kts | 263° |
| 2026-04-23 02:29 | 33.94524 | -118.30493 | 1396 ft | 141 kts | 263° |
| 2026-04-23 02:29 | 33.94407 | -118.31662 | 1196 ft | 138 kts | 263° |
| 2026-04-23 02:29 | 33.94291 | -118.32796 | 1013 ft | 137 kts | 263° |
| 2026-04-23 02:30 | 33.94176 | -118.33930 | 844 ft | 135 kts | 263° |
| 2026-04-23 02:30 | 33.94063 | -118.35066 | 657 ft | 135 kts | 263° |
| 2026-04-23 02:30 | 33.93956 | -118.36179 | 477 ft | 135 kts | 263° |
| 2026-04-23 02:30 | 33.93850 | -118.37286 | 317 ft | 133 kts | 261° |
| 2026-04-23 02:31 | 33.93720 | -118.38384 | 130 ft | 133 kts | 262° |
| 2026-04-23 02:31 | 33.93621 | -118.39350 | 108 ft | 86 kts | 261° |
| 2026-04-23 02:31 | 33.93617 | -118.39828 | 114 ft | 43 kts | 283° |
| 2026-04-23 02:31 | 33.93659 | -118.40082 | 119 ft | 25 kts | 268° |
| 2026-04-23 02:32 | 33.93649 | -118.40258 | 121 ft | 7 kts | 265° |
| 2026-04-23 02:32 | 33.93650 | -118.40311 | 121 ft | 0 kts | 282° |
| 2026-04-23 02:32 | 33.93661 | -118.40356 | 121 ft | 11 kts | 297° |
| 2026-04-23 02:33 | 33.93758 | -118.40427 | 123 ft | 19 kts | 351° |
| 2026-04-23 02:33 | 33.93878 | -118.40435 | 123 ft | 15 kts | 31° |
| 2026-04-23 02:33 | 33.93929 | -118.40339 | 121 ft | 13 kts | 76° |
| 2026-04-23 02:33 | 33.93939 | -118.40231 | 121 ft | 12 kts | 85° |
| 2026-04-23 02:34 | 33.93948 | -118.40131 | 120 ft | 11 kts | 76° |
| 2026-04-23 02:34 | 33.93995 | -118.40074 | 119 ft | 9 kts | 14° |
| 2026-04-23 02:34 | 33.94013 | -118.40073 | 119 ft | 9 kts | 359° |
| 2026-04-23 02:35 | 33.94021 | -118.40073 | 119 ft | 9 kts | 359° |